Portada
METAR-TAF:

METAR-TAF

Aeroports :

Kimmirut, Nunavut, Canadà

latitud: 62-51N, longitud: 069-53W, altitud: 53 m

Observació

L'informe es va fer fa 5 hores i 24 minuts, a les 19:00 UTC
Vent 7 kt del Sud-Oest
Temperatura -1°C
Humitat 74%
Pressió 1014 hPa
Visibilitat: 24.1 km
Núvols disperses a una alçada de 1500 ft
Cel ennuvolat a una alçada de 3400 ft
Cel ennuvolat a una alçada de 4300 ft
xàfecs de neu

METAR: CYLC 231900Z 23007KT 15SM -SHSN SCT015 BKN034 BKN043 M01/M05 A2993 RMK SC3SC2SC2 ISLTD -SHSN LASTSTFD OBS/NXT 261100Z SLP140

Hora: 20:24 (00:24 UTC)


TAF: manca

Observacions i pronòstics meteorològics de més de 4000 aeroports (METAR i TAF).

Les estacions disponibles són els punts grocs i vermells al mapa.

Posi el ratolí al punt desitjat per veure el nom de l'estació.

Feu clic per veure les observacions i els pronòstics meteorològics.

Per canviar el mapa: feu clic els botons verds amb una creu de color negre per apropar; al botó verd amb un guió per allunyar la imatge; o en les fletxes verdes per a mapes adjacents.


METAR-TAF: